createdAt,value
2022-11-11T00:01:17.980Z,100.00
2022-11-11T00:03:44.854Z,100.00
2022-11-11T00:06:16.501Z,100.00
2022-11-11T00:08:47.302Z,100.00
2022-11-11T00:11:15.308Z,100.00
2022-11-11T00:13:43.875Z,100.00
2022-11-11T00:16:13.318Z,100.00
2022-11-11T00:19:00.439Z,100.00
2022-11-11T00:21:46.158Z,100.00
2022-11-11T00:24:46.608Z,100.00
2022-11-11T00:27:15.083Z,100.00
2022-11-11T00:29:46.642Z,100.00
2022-11-11T00:32:31.220Z,100.00
2022-11-11T00:35:18.269Z,100.00
2022-11-11T00:37:46.867Z,100.00
2022-11-11T00:40:14.741Z,100.00
2022-11-11T00:42:42.115Z,100.00
2022-11-11T00:45:10.004Z,100.00
2022-11-11T00:47:55.272Z,100.00
2022-11-11T00:50:47.838Z,100.00
2022-11-11T00:53:21.566Z,100.00
2022-11-11T00:55:52.622Z,100.00
2022-11-11T00:58:19.460Z,100.00
2022-11-11T01:00:47.315Z,100.00
2022-11-11T01:03:14.063Z,100.00
2022-11-11T01:05:40.895Z,100.00
2022-11-11T01:08:07.965Z,100.00
2022-11-11T01:10:43.261Z,100.00
2022-11-11T01:13:15.120Z,100.00
2022-11-11T01:15:44.998Z,100.00
2022-11-11T01:18:14.523Z,100.00
2022-11-11T01:20:41.850Z,100.00
2022-11-11T01:23:10.277Z,100.00
2022-11-11T01:25:39.510Z,100.00
2022-11-11T01:28:07.165Z,100.00
2022-11-11T01:30:36.088Z,100.00
2022-11-11T01:33:03.165Z,100.00
2022-11-11T01:35:30.524Z,100.00
2022-11-11T01:37:59.340Z,100.00
2022-11-11T01:40:26.774Z,100.00
2022-11-11T01:43:06.388Z,100.00
2022-11-11T01:45:51.700Z,100.00
2022-11-11T01:48:43.315Z,100.00
2022-11-11T01:51:21.467Z,100.00
2022-11-11T01:53:54.777Z,100.00
2022-11-11T01:56:22.647Z,100.00
2022-11-11T01:58:54.180Z,100.00
2022-11-11T02:01:21.281Z,100.00
2022-11-11T02:04:08.852Z,100.00
2022-11-11T02:06:38.381Z,100.00
2022-11-11T02:09:06.159Z,100.00
2022-11-11T02:11:55.102Z,100.00
2022-11-11T02:14:37.631Z,100.00
2022-11-11T02:17:08.120Z,100.00
2022-11-11T02:19:45.613Z,100.00
2022-11-11T02:22:19.655Z,100.00
2022-11-11T02:24:46.634Z,100.00
2022-11-11T02:27:17.243Z,100.00
2022-11-11T02:29:48.701Z,100.00
2022-11-11T02:32:15.851Z,100.00
2022-11-11T02:34:42.772Z,100.00
2022-11-11T02:37:10.670Z,100.00
2022-11-11T02:40:02.450Z,100.00
2022-11-11T02:42:31.231Z,100.00
2022-11-11T02:44:59.482Z,100.00
2022-11-11T02:47:27.353Z,100.00
2022-11-11T02:49:54.599Z,100.00
2022-11-11T02:52:22.044Z,100.00
2022-11-11T02:54:49.489Z,100.00
2022-11-11T02:57:17.800Z,100.00
2022-11-11T02:59:44.836Z,100.00
2022-11-11T03:02:12.283Z,100.00
2022-11-11T03:04:39.553Z,100.00
2022-11-11T03:07:06.822Z,100.00
2022-11-11T03:09:34.684Z,100.00
2022-11-11T03:12:01.621Z,100.00
2022-11-11T03:14:28.865Z,100.00
2022-11-11T03:17:14.713Z,100.00
2022-11-11T03:19:41.712Z,100.00
2022-11-11T03:25:14.080Z,100.00
2022-11-11T03:27:42.262Z,100.00
2022-11-11T03:30:09.506Z,100.00
2022-11-11T03:32:36.527Z,100.00
2022-11-11T03:35:03.336Z,100.00
2022-11-11T03:37:48.838Z,100.00
2022-11-11T03:40:16.036Z,100.00
2022-11-11T03:42:44.062Z,100.00
2022-11-11T03:45:11.148Z,100.00
2022-11-11T03:47:38.015Z,100.00
2022-11-11T03:50:05.491Z,100.00
2022-11-11T03:52:32.275Z,100.00
2022-11-11T03:54:59.258Z,100.00
2022-11-11T03:57:31.866Z,100.00
2022-11-11T03:59:58.873Z,100.00
2022-11-11T04:02:44.197Z,100.00
2022-11-11T04:05:29.506Z,100.00
2022-11-11T04:08:15.134Z,100.00
2022-11-11T04:10:41.832Z,100.00
2022-11-11T04:13:27.820Z,100.00
2022-11-11T04:16:06.553Z,100.00
2022-11-11T04:18:56.365Z,100.00
2022-11-11T04:21:43.320Z,100.00
2022-11-11T04:24:35.046Z,100.00
2022-11-11T04:27:07.739Z,100.00
2022-11-11T04:29:35.455Z,100.00
2022-11-11T04:32:32.051Z,100.00
2022-11-11T04:35:01.275Z,100.00
2022-11-11T04:37:31.706Z,100.00
2022-11-11T04:40:17.764Z,100.00
2022-11-11T04:42:44.566Z,100.00
2022-11-11T04:45:28.392Z,100.00
2022-11-11T04:48:05.816Z,100.00
2022-11-11T04:50:36.712Z,100.00
2022-11-11T04:53:05.927Z,100.00
2022-11-11T04:55:51.887Z,100.00
2022-11-11T04:58:21.779Z,100.00
2022-11-11T05:00:48.830Z,100.00
2022-11-11T05:03:16.603Z,100.00
2022-11-11T05:06:06.928Z,100.00
2022-11-11T05:08:53.831Z,100.00
2022-11-11T05:11:34.736Z,100.00
2022-11-11T05:14:22.230Z,100.00
2022-11-11T05:17:10.598Z,100.00
2022-11-11T05:19:56.528Z,100.00
2022-11-11T05:22:27.865Z,100.00
2022-11-11T05:25:13.235Z,100.00
2022-11-11T05:27:40.720Z,100.00
2022-11-11T05:30:10.118Z,100.00
2022-11-11T05:32:37.979Z,100.00
2022-11-11T05:35:05.767Z,100.00
2022-11-11T05:37:32.745Z,100.00
2022-11-11T05:39:59.804Z,100.00
2022-11-11T05:42:26.926Z,100.00
2022-11-11T05:44:54.114Z,100.00
2022-11-11T05:47:20.931Z,100.00
2022-11-11T05:49:47.934Z,100.00
2022-11-11T05:52:16.580Z,100.00
2022-11-11T05:54:43.881Z,100.00
2022-11-11T05:57:11.460Z,100.00
2022-11-11T05:59:38.204Z,100.00
2022-11-11T06:02:05.342Z,100.00
2022-11-11T06:04:34.534Z,100.00
2022-11-11T06:07:01.299Z,100.00
2022-11-11T06:09:28.364Z,100.00
2022-11-11T06:11:55.132Z,100.00
2022-11-11T06:14:21.897Z,100.00
2022-11-11T06:16:48.968Z,100.00
2022-11-11T06:19:15.745Z,100.00
2022-11-11T06:21:57.215Z,100.00
2022-11-11T06:24:26.685Z,100.00
2022-11-11T06:26:55.497Z,100.00
2022-11-11T06:29:23.332Z,100.00
2022-11-11T06:31:50.066Z,100.00
2022-11-11T06:34:17.111Z,100.00
2022-11-11T06:36:44.274Z,100.00
2022-11-11T06:39:11.040Z,100.00
2022-11-11T06:41:38.065Z,100.00
2022-11-11T06:44:05.013Z,100.00
2022-11-11T06:46:32.190Z,100.00
2022-11-11T06:48:59.033Z,99.39
2022-11-11T06:51:26.094Z,94.40
2022-11-11T06:53:52.901Z,93.03
2022-11-11T06:56:19.624Z,91.65
2022-11-11T06:58:46.766Z,90.37
2022-11-11T07:01:14.122Z,89.03
2022-11-11T07:03:41.361Z,89.05
2022-11-11T07:06:08.274Z,86.03
2022-11-11T07:08:35.485Z,86.00
2022-11-11T07:11:09.333Z,83.63
2022-11-11T07:13:39.828Z,81.62
2022-11-11T07:16:06.832Z,82.39
2022-11-11T07:18:33.846Z,79.59
2022-11-11T07:21:00.593Z,78.92
2022-11-11T07:23:27.697Z,80.01
2022-11-11T07:25:54.411Z,76.87
2022-11-11T07:28:21.568Z,76.04
2022-11-11T07:30:48.545Z,78.28
2022-11-11T07:33:19.029Z,74.64
2022-11-11T07:35:48.797Z,72.59
2022-11-11T07:38:15.929Z,71.03
2022-11-11T07:40:42.720Z,72.82
2022-11-11T07:43:09.721Z,71.32
2022-11-11T07:45:36.424Z,67.22
2022-11-11T07:48:03.513Z,60.23
2022-11-11T07:50:30.321Z,63.06
2022-11-11T07:52:57.410Z,65.55
2022-11-11T07:55:24.186Z,68.83
2022-11-11T07:57:54.311Z,72.61
2022-11-11T08:00:21.187Z,78.02
2022-11-11T08:02:49.472Z,79.38
2022-11-11T08:05:16.994Z,82.80
2022-11-11T08:07:44.046Z,83.29
2022-11-11T08:10:12.156Z,85.48
2022-11-11T08:12:57.453Z,87.51
2022-11-11T08:15:24.217Z,87.99
2022-11-11T08:17:51.289Z,87.90
2022-11-11T08:20:18.425Z,89.47
2022-11-11T08:23:06.986Z,89.85
2022-11-11T08:25:32.431Z,90.29
2022-11-11T08:28:01.282Z,91.09
2022-11-11T08:30:28.398Z,92.09
2022-11-11T08:33:43.653Z,92.06
2022-11-11T08:35:50.338Z,93.14
2022-11-11T08:38:17.133Z,95.81
2022-11-11T08:40:43.893Z,96.72
2022-11-11T08:43:10.972Z,97.74
2022-11-11T08:45:38.145Z,97.84
2022-11-11T08:48:05.603Z,98.14
2022-11-11T08:50:32.360Z,99.78
2022-11-11T08:52:59.409Z,100.00
2022-11-11T08:55:26.192Z,100.00
2022-11-11T08:58:01.334Z,100.00
2022-11-11T09:00:28.347Z,100.00
2022-11-11T09:03:00.140Z,100.00
2022-11-11T09:05:26.952Z,99.87
2022-11-11T09:07:54.138Z,99.49
2022-11-11T09:10:21.139Z,97.65
2022-11-11T09:12:47.914Z,95.29
2022-11-11T09:15:14.929Z,96.03
2022-11-11T09:17:47.593Z,95.86
2022-11-11T09:20:14.925Z,95.23
2022-11-11T09:22:46.110Z,94.82
2022-11-11T09:25:13.971Z,94.93
2022-11-11T09:27:41.225Z,94.95
2022-11-11T09:30:10.362Z,93.06
2022-11-11T09:32:37.462Z,91.42
2022-11-11T09:35:04.889Z,89.49
2022-11-11T09:37:31.646Z,88.71
2022-11-11T09:39:58.757Z,88.75
2022-11-11T09:42:43.852Z,90.70
2022-11-11T09:45:13.903Z,90.48
2022-11-11T09:48:13.458Z,92.60
2022-11-11T09:50:43.527Z,92.95
2022-11-11T09:53:40.619Z,93.85
2022-11-11T09:56:30.669Z,95.71
2022-11-11T09:59:04.356Z,95.60
2022-11-11T10:01:50.247Z,95.74
2022-11-11T10:04:26.862Z,93.29
2022-11-11T10:07:18.747Z,93.18
2022-11-11T10:10:00.667Z,92.96
2022-11-11T10:12:43.158Z,93.83
2022-11-11T10:15:13.884Z,92.80
2022-11-11T10:17:53.069Z,91.33
2022-11-11T10:20:30.734Z,92.38
2022-11-11T10:23:14.433Z,92.40
2022-11-11T10:26:08.196Z,85.38
2022-11-11T10:28:39.527Z,79.91
2022-11-11T10:31:15.696Z,77.34
2022-11-11T10:33:51.196Z,76.17
2022-11-11T10:36:20.621Z,72.32
2022-11-11T10:38:55.652Z,71.15
2022-11-11T10:41:46.648Z,72.68
2022-11-11T10:44:28.612Z,71.88
2022-11-11T10:47:06.911Z,74.30
2022-11-11T10:49:39.181Z,76.02
2022-11-11T10:52:30.895Z,77.12
2022-11-11T10:55:16.816Z,79.23
2022-11-11T10:58:25.172Z,79.48
2022-11-11T11:00:55.665Z,80.85
2022-11-11T11:03:29.415Z,80.90
2022-11-11T11:06:25.698Z,80.69
2022-11-11T11:09:09.186Z,79.84
2022-11-11T11:11:42.084Z,80.77
2022-11-11T11:14:19.777Z,82.44
2022-11-11T11:16:55.560Z,80.93
2022-11-11T11:19:25.039Z,80.90
2022-11-11T11:21:57.423Z,81.56
2022-11-11T11:24:32.778Z,83.27
2022-11-11T11:27:07.119Z,84.15
2022-11-11T11:29:34.025Z,84.94
2022-11-11T11:32:21.860Z,84.39
2022-11-11T11:34:50.000Z,83.23
2022-11-11T11:37:19.434Z,84.89
2022-11-11T11:39:46.985Z,84.95
2022-11-11T11:42:38.333Z,84.64
2022-11-11T11:45:20.770Z,85.89
2022-11-11T11:48:16.534Z,85.14
2022-11-11T11:50:57.161Z,83.16
2022-11-11T11:53:34.908Z,81.03
2022-11-11T11:56:20.352Z,81.75
2022-11-11T11:59:05.391Z,82.64
2022-11-11T12:01:54.724Z,82.58
2022-11-11T12:04:30.742Z,80.25
2022-11-11T12:07:06.280Z,79.71
2022-11-11T12:09:51.912Z,78.45
2022-11-11T12:12:40.165Z,77.36
2022-11-11T12:15:07.154Z,78.07
2022-11-11T12:17:52.696Z,77.45
2022-11-11T12:20:46.107Z,69.50
2022-11-11T12:23:34.659Z,69.93
2022-11-11T12:26:18.185Z,69.31
2022-11-11T12:29:02.997Z,69.30
2022-11-11T12:31:36.052Z,69.93
2022-11-11T12:34:08.520Z,71.99
2022-11-11T12:36:43.464Z,72.88
2022-11-11T12:39:47.816Z,73.80
2022-11-11T12:42:37.185Z,74.85
2022-11-11T12:45:07.070Z,73.37
2022-11-11T12:47:49.008Z,73.33
2022-11-11T12:50:23.545Z,72.44
2022-11-11T12:53:23.937Z,70.39
2022-11-11T12:56:09.325Z,69.27
2022-11-11T12:58:48.565Z,69.33
2022-11-11T13:01:36.542Z,70.03
2022-11-11T13:04:25.172Z,70.62
2022-11-11T13:07:08.870Z,70.63
2022-11-11T13:10:03.148Z,71.64
2022-11-11T13:12:32.829Z,72.33
2022-11-11T13:15:25.345Z,71.77
2022-11-11T13:17:52.597Z,72.97
2022-11-11T13:20:44.639Z,73.70
2022-11-11T13:23:12.047Z,74.05
2022-11-11T13:25:50.948Z,74.45
2022-11-11T13:28:29.390Z,74.97
2022-11-11T13:31:20.034Z,76.14
2022-11-11T13:33:50.277Z,76.78
2022-11-11T13:36:21.515Z,77.90
2022-11-11T13:39:05.865Z,78.14
2022-11-11T13:41:39.373Z,78.86
2022-11-11T13:44:09.377Z,79.16
2022-11-11T13:46:50.096Z,80.22
2022-11-11T13:49:29.182Z,80.36
2022-11-11T13:52:01.347Z,80.84
2022-11-11T13:54:28.112Z,80.59
2022-11-11T13:57:04.687Z,81.25
2022-11-11T13:59:37.222Z,81.12
2022-11-11T14:02:19.228Z,81.46
2022-11-11T14:05:12.736Z,82.50
2022-11-11T14:07:48.643Z,82.97
2022-11-11T14:10:18.553Z,83.40
2022-11-11T14:12:56.425Z,83.75
2022-11-11T14:15:50.256Z,84.64
2022-11-11T14:18:19.931Z,85.38
2022-11-11T14:20:52.001Z,86.35
2022-11-11T14:23:18.690Z,87.93
2022-11-11T14:25:46.775Z,88.49
2022-11-11T14:28:39.060Z,89.62
2022-11-11T14:31:16.055Z,90.26
2022-11-11T14:33:51.432Z,90.68
2022-11-11T14:36:42.550Z,91.15
2022-11-11T14:39:37.447Z,91.72
2022-11-11T14:42:05.375Z,91.98
2022-11-11T14:44:32.381Z,92.76
2022-11-11T14:47:08.215Z,93.77
2022-11-11T14:49:44.291Z,94.96
2022-11-11T14:52:25.928Z,95.34
2022-11-11T14:55:02.306Z,96.09
2022-11-11T14:57:41.733Z,96.92
2022-11-11T15:00:16.118Z,97.15
2022-11-11T15:02:51.332Z,97.55
2022-11-11T15:05:31.117Z,98.57
2022-11-11T15:08:20.341Z,99.31
2022-11-11T15:11:01.727Z,100.00
2022-11-11T15:13:44.077Z,100.00
2022-11-11T15:16:17.269Z,100.00
2022-11-11T15:18:50.073Z,100.00
2022-11-11T15:21:30.778Z,100.00
2022-11-11T15:24:21.649Z,100.00
2022-11-11T15:27:02.783Z,100.00
2022-11-11T15:30:01.614Z,100.00
2022-11-11T15:33:00.893Z,100.00
2022-11-11T15:35:53.131Z,100.00
2022-11-11T15:38:21.050Z,100.00
2022-11-11T15:40:51.261Z,100.00
2022-11-11T15:43:24.845Z,100.00
2022-11-11T15:46:05.840Z,100.00
2022-11-11T15:48:42.388Z,100.00
2022-11-11T15:51:21.668Z,100.00
2022-11-11T15:53:49.563Z,100.00
2022-11-11T15:56:33.676Z,100.00
2022-11-11T15:59:23.390Z,100.00
2022-11-11T16:01:51.959Z,100.00
2022-11-11T16:07:20.496Z,100.00
2022-11-11T16:09:47.619Z,100.00
2022-11-11T16:12:20.544Z,100.00
2022-11-11T16:14:52.146Z,100.00
2022-11-11T16:17:19.876Z,100.00
2022-11-11T16:19:49.682Z,100.00
2022-11-11T16:22:32.364Z,100.00
2022-11-11T16:24:59.629Z,100.00
2022-11-11T16:27:30.808Z,100.00
2022-11-11T16:30:16.105Z,100.00
2022-11-11T16:32:43.188Z,100.00
2022-11-11T16:35:33.126Z,100.00
2022-11-11T16:38:00.280Z,100.00
2022-11-11T16:40:32.766Z,100.00
2022-11-11T16:43:20.275Z,100.00
2022-11-11T16:45:49.767Z,100.00
2022-11-11T16:48:37.922Z,100.00
2022-11-11T16:51:07.526Z,100.00
2022-11-11T16:53:36.285Z,100.00
2022-11-11T16:56:04.916Z,100.00
2022-11-11T16:58:32.109Z,100.00
2022-11-11T17:01:01.710Z,100.00
2022-11-11T17:03:29.589Z,100.00
2022-11-11T17:05:57.994Z,100.00
2022-11-11T17:08:45.428Z,100.00
2022-11-11T17:11:40.301Z,100.00
2022-11-11T17:14:07.300Z,100.00
2022-11-11T17:16:34.377Z,100.00
2022-11-11T17:19:02.579Z,100.00
2022-11-11T17:21:29.595Z,100.00
2022-11-11T17:23:56.335Z,100.00
2022-11-11T17:26:23.338Z,100.00
2022-11-11T17:28:50.399Z,100.00
2022-11-11T17:31:17.236Z,100.00
2022-11-11T17:33:44.282Z,100.00
2022-11-11T17:36:11.094Z,100.00
2022-11-11T17:38:38.542Z,100.00
2022-11-11T17:41:05.793Z,100.00
2022-11-11T17:43:33.435Z,100.00
2022-11-11T17:46:01.274Z,100.00
2022-11-11T17:48:28.334Z,100.00
2022-11-11T17:50:55.106Z,100.00
2022-11-11T17:53:22.202Z,100.00
2022-11-11T17:55:49.023Z,100.00
2022-11-11T17:58:16.174Z,100.00
2022-11-11T18:00:42.895Z,100.00
2022-11-11T18:03:09.972Z,100.00
2022-11-11T18:05:36.947Z,100.00
2022-11-11T18:08:04.285Z,100.00
2022-11-11T18:10:31.084Z,100.00
2022-11-11T18:12:58.734Z,100.00
2022-11-11T18:15:25.458Z,100.00
2022-11-11T18:17:52.572Z,100.00
2022-11-11T18:20:19.303Z,100.00
2022-11-11T18:22:46.329Z,100.00
2022-11-11T18:25:14.150Z,100.00
2022-11-11T18:27:41.201Z,100.00
2022-11-11T18:30:08.842Z,100.00
2022-11-11T18:32:35.878Z,100.00
2022-11-11T18:35:02.678Z,100.00
2022-11-11T18:37:29.760Z,100.00
2022-11-11T18:39:56.523Z,100.00
2022-11-11T18:42:23.699Z,100.00
2022-11-11T18:44:50.457Z,100.00
2022-11-11T18:47:17.516Z,100.00
2022-11-11T18:49:44.239Z,100.00
2022-11-11T18:52:11.304Z,100.00
2022-11-11T18:54:38.112Z,100.00
2022-11-11T18:57:05.147Z,100.00
2022-11-11T18:59:31.924Z,100.00
2022-11-11T19:01:58.993Z,100.00
2022-11-11T19:04:25.928Z,100.00
2022-11-11T19:06:53.268Z,100.00
2022-11-11T19:09:20.057Z,100.00
2022-11-11T19:11:47.356Z,100.00
2022-11-11T19:14:19.914Z,100.00
2022-11-11T19:16:48.716Z,100.00
2022-11-11T19:19:16.358Z,100.00
2022-11-11T19:21:43.376Z,100.00
2022-11-11T19:24:10.694Z,100.00
2022-11-11T19:26:37.788Z,100.00
2022-11-11T19:29:06.038Z,100.00
2022-11-11T19:31:33.427Z,100.00
2022-11-11T19:34:00.616Z,100.00
2022-11-11T19:36:29.579Z,100.00
2022-11-11T19:39:01.316Z,100.00
2022-11-11T19:41:31.347Z,100.00
2022-11-11T19:43:58.386Z,100.00
2022-11-11T19:46:27.935Z,100.00
2022-11-11T19:48:55.526Z,100.00
2022-11-11T19:51:24.244Z,100.00
2022-11-11T19:53:56.305Z,100.00
2022-11-11T19:56:28.640Z,100.00
2022-11-11T19:58:55.459Z,100.00
2022-11-11T20:01:25.411Z,100.00
2022-11-11T20:03:52.530Z,100.00
2022-11-11T20:06:29.083Z,100.00
2022-11-11T20:08:58.171Z,100.00
2022-11-11T20:11:26.457Z,100.00
2022-11-11T20:13:53.675Z,100.00
2022-11-11T20:16:21.028Z,100.00
2022-11-11T20:18:47.880Z,100.00
2022-11-11T20:21:15.193Z,100.00
2022-11-11T20:23:42.453Z,100.00
2022-11-11T20:26:15.177Z,100.00
2022-11-11T20:28:43.455Z,100.00
2022-11-11T20:31:12.808Z,100.00
2022-11-11T20:33:40.105Z,100.00
2022-11-11T20:36:09.820Z,100.00
2022-11-11T20:38:37.634Z,100.00
2022-11-11T20:41:11.591Z,100.00
2022-11-11T20:43:38.948Z,100.00
2022-11-11T20:46:07.089Z,100.00
2022-11-11T20:48:34.871Z,100.00
2022-11-11T20:51:10.265Z,100.00
2022-11-11T20:53:37.567Z,100.00
2022-11-11T20:56:11.240Z,100.00
2022-11-11T20:58:39.565Z,100.00
2022-11-11T21:01:08.544Z,100.00
2022-11-11T21:03:35.829Z,100.00
2022-11-11T21:06:07.838Z,100.00
2022-11-11T21:08:37.088Z,100.00
2022-11-11T21:11:04.886Z,100.00
2022-11-11T21:13:32.722Z,100.00
2022-11-11T21:16:20.650Z,100.00
2022-11-11T21:18:49.067Z,100.00
2022-11-11T21:21:20.199Z,100.00
2022-11-11T21:23:48.006Z,100.00
2022-11-11T21:26:17.342Z,100.00
2022-11-11T21:28:45.964Z,100.00
2022-11-11T21:31:40.169Z,100.00
2022-11-11T21:34:10.023Z,100.00
2022-11-11T21:36:39.540Z,100.00
2022-11-11T21:39:07.738Z,100.00
2022-11-11T21:41:37.014Z,100.00
2022-11-11T21:44:05.642Z,100.00
2022-11-11T21:46:34.701Z,100.00
2022-11-11T21:49:02.127Z,100.00
2022-11-11T21:51:31.169Z,100.00
2022-11-11T21:54:02.482Z,100.00
2022-11-11T21:56:31.920Z,100.00
2022-11-11T21:59:01.123Z,100.00
2022-11-11T22:01:31.116Z,100.00
2022-11-11T22:04:04.814Z,100.00
2022-11-11T22:06:32.326Z,100.00
2022-11-11T22:09:00.367Z,100.00
2022-11-11T22:11:30.668Z,100.00
2022-11-11T22:13:58.924Z,100.00
2022-11-11T22:16:28.443Z,100.00
2022-11-11T22:19:00.976Z,100.00
2022-11-11T22:21:32.833Z,100.00
2022-11-11T22:24:03.182Z,100.00
2022-11-11T22:26:35.179Z,100.00
2022-11-11T22:29:03.744Z,100.00
2022-11-11T22:31:34.518Z,100.00
2022-11-11T22:34:03.151Z,100.00
2022-11-11T22:36:32.445Z,100.00
2022-11-11T22:39:00.224Z,100.00
2022-11-11T22:41:30.204Z,100.00
2022-11-11T22:44:00.282Z,100.00
2022-11-11T22:46:29.497Z,100.00
2022-11-11T22:48:58.604Z,100.00
2022-11-11T22:51:28.143Z,100.00
2022-11-11T22:53:56.234Z,100.00
2022-11-11T22:56:23.602Z,100.00
2022-11-11T22:58:50.935Z,100.00
2022-11-11T23:01:30.025Z,100.00
2022-11-11T23:04:00.256Z,100.00
2022-11-11T23:06:38.921Z,100.00
2022-11-11T23:09:06.928Z,100.00
2022-11-11T23:11:36.195Z,100.00
2022-11-11T23:14:07.231Z,100.00
2022-11-11T23:16:34.872Z,100.00
2022-11-11T23:19:04.316Z,100.00
2022-11-11T23:21:31.839Z,100.00
2022-11-11T23:23:59.120Z,100.00
2022-11-11T23:26:28.515Z,100.00
2022-11-11T23:28:55.585Z,100.00
2022-11-11T23:31:26.005Z,100.00
2022-11-11T23:33:54.020Z,100.00
2022-11-11T23:36:23.087Z,100.00
2022-11-11T23:38:50.509Z,100.00
2022-11-11T23:41:17.871Z,100.00
2022-11-11T23:43:45.255Z,100.00
2022-11-11T23:46:12.326Z,100.00
2022-11-11T23:48:39.146Z,100.00
2022-11-11T23:51:06.292Z,100.00
2022-11-11T23:53:33.842Z,100.00
2022-11-11T23:56:01.612Z,100.00
2022-11-11T23:58:29.007Z,100.00
